sensor_id;sensor_type;location;lat;lon;timestamp;pressure;altitude;pressure_sealevel;temperature;humidity
15750;BME280;7976;52.526;13.326;2022-10-15T00:01:06;100440.50;;;14.82;84.38
15750;BME280;7976;52.526;13.326;2022-10-15T00:03:35;100434.41;;;14.81;84.50
15750;BME280;7976;52.526;13.326;2022-10-15T00:06:07;100425.81;;;14.78;84.41
15750;BME280;7976;52.526;13.326;2022-10-15T00:08:35;100428.47;;;14.78;84.81
15750;BME280;7976;52.526;13.326;2022-10-15T00:11:04;100420.66;;;14.76;84.95
15750;BME280;7976;52.526;13.326;2022-10-15T00:13:32;100423.47;;;14.73;85.31
15750;BME280;7976;52.526;13.326;2022-10-15T00:16:00;100422.72;;;14.71;85.40
15750;BME280;7976;52.526;13.326;2022-10-15T00:18:27;100411.50;;;14.68;85.80
15750;BME280;7976;52.526;13.326;2022-10-15T00:20:54;100406.53;;;14.63;86.04
15750;BME280;7976;52.526;13.326;2022-10-15T00:23:31;100401.59;;;14.57;86.54
15750;BME280;7976;52.526;13.326;2022-10-15T00:26:06;100397.28;;;14.56;87.41
15750;BME280;7976;52.526;13.326;2022-10-15T00:28:36;100398.28;;;14.54;87.76
15750;BME280;7976;52.526;13.326;2022-10-15T00:31:17;100397.63;;;14.50;88.46
15750;BME280;7976;52.526;13.326;2022-10-15T00:34:03;100393.22;;;14.51;89.55
15750;BME280;7976;52.526;13.326;2022-10-15T00:36:44;100393.50;;;14.46;89.56
15750;BME280;7976;52.526;13.326;2022-10-15T00:39:17;100393.50;;;14.46;90.49
15750;BME280;7976;52.526;13.326;2022-10-15T00:41:45;100397.81;;;14.47;90.82
15750;BME280;7976;52.526;13.326;2022-10-15T00:44:51;100395.94;;;14.49;91.01
15750;BME280;7976;52.526;13.326;2022-10-15T00:47:26;100395.16;;;14.47;91.20
15750;BME280;7976;52.526;13.326;2022-10-15T00:50:00;100392.72;;;14.44;91.34
15750;BME280;7976;52.526;13.326;2022-10-15T00:52:54;100382.38;;;14.41;91.83
15750;BME280;7976;52.526;13.326;2022-10-15T00:55:29;100384.06;;;14.42;92.21
15750;BME280;7976;52.526;13.326;2022-10-15T00:58:08;100375.97;;;14.45;92.45
15750;BME280;7976;52.526;13.326;2022-10-15T01:00:36;100374.00;;;14.49;92.57
15750;BME280;7976;52.526;13.326;2022-10-15T01:03:03;100374.09;;;14.47;92.76
15750;BME280;7976;52.526;13.326;2022-10-15T01:05:34;100370.63;;;14.47;92.59
15750;BME280;7976;52.526;13.326;2022-10-15T01:08:03;100367.06;;;14.48;93.05
15750;BME280;7976;52.526;13.326;2022-10-15T01:10:45;100364.44;;;14.48;93.09
15750;BME280;7976;52.526;13.326;2022-10-15T01:13:22;100354.91;;;14.45;93.23
15750;BME280;7976;52.526;13.326;2022-10-15T01:15:59;100349.75;;;14.44;93.49
15750;BME280;7976;52.526;13.326;2022-10-15T01:18:37;100353.22;;;14.44;93.36
15750;BME280;7976;52.526;13.326;2022-10-15T01:21:18;100350.03;;;14.39;93.70
15750;BME280;7976;52.526;13.326;2022-10-15T01:27:38;100349.44;;;14.34;93.99
15750;BME280;7976;52.526;13.326;2022-10-15T01:30:21;100334.50;;;14.35;93.92
15750;BME280;7976;52.526;13.326;2022-10-15T01:33:23;100336.84;;;14.39;94.36
15750;BME280;7976;52.526;13.326;2022-10-15T01:35:59;100336.00;;;14.39;94.49
15750;BME280;7976;52.526;13.326;2022-10-15T01:38:45;100336.09;;;14.37;94.63
15750;BME280;7976;52.526;13.326;2022-10-15T01:41:22;100331.50;;;14.41;94.67
15750;BME280;7976;52.526;13.326;2022-10-15T01:44:05;100326.13;;;14.42;94.89
15750;BME280;7976;52.526;13.326;2022-10-15T01:47:03;100327.09;;;14.41;94.96
15750;BME280;7976;52.526;13.326;2022-10-15T01:49:37;100324.69;;;14.37;94.99
15750;BME280;7976;52.526;13.326;2022-10-15T01:52:13;100325.47;;;14.39;95.24
15750;BME280;7976;52.526;13.326;2022-10-15T01:54:50;100325.28;;;14.42;95.28
15750;BME280;7976;52.526;13.326;2022-10-15T01:57:26;100323.31;;;14.45;95.52
15750;BME280;7976;52.526;13.326;2022-10-15T01:59:55;100323.31;;;14.45;95.34
15750;BME280;7976;52.526;13.326;2022-10-15T02:02:24;100319.75;;;14.46;95.22
15750;BME280;7976;52.526;13.326;2022-10-15T02:04:51;100319.75;;;14.46;95.49
15750;BME280;7976;52.526;13.326;2022-10-15T02:07:32;100316.28;;;14.46;95.29
15750;BME280;7976;52.526;13.326;2022-10-15T02:10:11;100310.16;;;14.45;95.50
15750;BME280;7976;52.526;13.326;2022-10-15T02:12:54;100315.41;;;14.45;95.32
15750;BME280;7976;52.526;13.326;2022-10-15T02:15:33;100307.41;;;14.47;95.38
15750;BME280;7976;52.526;13.326;2022-10-15T02:18:09;100306.59;;;14.46;95.57
15750;BME280;7976;52.526;13.326;2022-10-15T02:20:47;100300.47;;;14.46;95.78
15750;BME280;7976;52.526;13.326;2022-10-15T02:23:20;100304.78;;;14.47;95.85
15750;BME280;7976;52.526;13.326;2022-10-15T02:25:51;100299.53;;;14.47;95.74
15750;BME280;7976;52.526;13.326;2022-10-15T02:28:20;100301.13;;;14.49;95.82
15750;BME280;7976;52.526;13.326;2022-10-15T02:30:51;100305.44;;;14.50;95.83
15750;BME280;7976;52.526;13.326;2022-10-15T02:33:23;100307.06;;;14.53;95.99
15750;BME280;7976;52.526;13.326;2022-10-15T02:35:51;100306.22;;;14.52;95.89
15750;BME280;7976;52.526;13.326;2022-10-15T02:38:22;100308.66;;;14.55;96.13
15750;BME280;7976;52.526;13.326;2022-10-15T02:40:51;100301.50;;;14.57;95.96
15750;BME280;7976;52.526;13.326;2022-10-15T02:43:23;100291.75;;;14.59;95.87
15750;BME280;7976;52.526;13.326;2022-10-15T02:45:51;100283.75;;;14.61;96.05
15750;BME280;7976;52.526;13.326;2022-10-15T02:48:21;100278.47;;;14.61;95.99
15750;BME280;7976;52.526;13.326;2022-10-15T02:50:48;100288.00;;;14.63;95.86
15750;BME280;7976;52.526;13.326;2022-10-15T02:53:15;100288.91;;;14.62;95.82
15750;BME280;7976;52.526;13.326;2022-10-15T02:55:42;100288.16;;;14.60;95.84
15750;BME280;7976;52.526;13.326;2022-10-15T02:58:10;100285.53;;;14.60;96.07
15750;BME280;7976;52.526;13.326;2022-10-15T03:00:37;100282.06;;;14.60;96.19
15750;BME280;7976;52.526;13.326;2022-10-15T03:03:04;100285.53;;;14.60;96.21
15750;BME280;7976;52.526;13.326;2022-10-15T03:05:33;100287.22;;;14.61;96.22
15750;BME280;7976;52.526;13.326;2022-10-15T03:08:00;100279.34;;;14.61;96.57
15750;BME280;7976;52.526;13.326;2022-10-15T03:10:28;100285.53;;;14.60;96.41
15750;BME280;7976;52.526;13.326;2022-10-15T03:13:02;100283.75;;;14.61;96.45
15750;BME280;7976;52.526;13.326;2022-10-15T03:15:32;100281.97;;;14.61;96.27
15750;BME280;7976;52.526;13.326;2022-10-15T03:17:59;100282.06;;;14.60;96.26
15750;BME280;7976;52.526;13.326;2022-10-15T03:20:26;100281.22;;;14.59;96.43
15750;BME280;7976;52.526;13.326;2022-10-15T03:22:55;100277.72;;;14.59;96.23
15750;BME280;7976;52.526;13.326;2022-10-15T03:25:22;100267.09;;;14.60;96.32
15750;BME280;7976;52.526;13.326;2022-10-15T03:27:58;100268.78;;;14.61;96.27
15750;BME280;7976;52.526;13.326;2022-10-15T03:30:34;100266.25;;;14.60;96.16
15750;BME280;7976;52.526;13.326;2022-10-15T03:33:01;100261.16;;;14.57;95.98
15750;BME280;7976;52.526;13.326;2022-10-15T03:35:28;100268.31;;;14.55;96.48
15750;BME280;7976;52.526;13.326;2022-10-15T03:37:58;100257.78;;;14.55;96.39
15750;BME280;7976;52.526;13.326;2022-10-15T03:40:25;100261.34;;;14.54;96.27
15750;BME280;7976;52.526;13.326;2022-10-15T03:42:56;100262.19;;;14.54;96.26
15750;BME280;7976;52.526;13.326;2022-10-15T03:45:24;100260.53;;;14.53;96.75
15750;BME280;7976;52.526;13.326;2022-10-15T03:48:09;100250.06;;;14.52;96.31
15750;BME280;7976;52.526;13.326;2022-10-15T03:50:35;100251.88;;;14.51;96.34
15750;BME280;7976;52.526;13.326;2022-10-15T03:53:05;100263.22;;;14.52;96.79
15750;BME280;7976;52.526;13.326;2022-10-15T03:55:33;100264.06;;;14.52;96.85
15750;BME280;7976;52.526;13.326;2022-10-15T03:58:00;100257.91;;;14.53;96.49
15750;BME280;7976;52.526;13.326;2022-10-15T04:00:27;100256.09;;;14.54;96.66
15750;BME280;7976;52.526;13.326;2022-10-15T04:02:58;100258.81;;;14.52;96.41
15750;BME280;7976;52.526;13.326;2022-10-15T04:05:27;100258.81;;;14.52;96.35
15750;BME280;7976;52.526;13.326;2022-10-15T04:08:05;100257.13;;;14.51;96.55
15750;BME280;7976;52.526;13.326;2022-10-15T04:10:36;100267.47;;;14.54;96.47
15750;BME280;7976;52.526;13.326;2022-10-15T04:13:03;100262.09;;;14.56;96.93
15750;BME280;7976;52.526;13.326;2022-10-15T04:15:32;100263.06;;;14.55;96.75
15750;BME280;7976;52.526;13.326;2022-10-15T04:18:03;100270.97;;;14.55;96.59
15750;BME280;7976;52.526;13.326;2022-10-15T04:20:30;100265.78;;;14.53;96.31
15750;BME280;7976;52.526;13.326;2022-10-15T04:23:11;100268.44;;;14.53;96.51
15750;BME280;7976;52.526;13.326;2022-10-15T04:25:42;100272.94;;;14.51;96.58
15750;BME280;7976;52.526;13.326;2022-10-15T04:28:11;100268.59;;;14.50;96.68
15750;BME280;7976;52.526;13.326;2022-10-15T04:30:39;100269.53;;;14.49;96.75
15750;BME280;7976;52.526;13.326;2022-10-15T04:33:10;100263.41;;;14.49;96.75
15750;BME280;7976;52.526;13.326;2022-10-15T04:35:38;100275.66;;;14.50;96.68
15750;BME280;7976;52.526;13.326;2022-10-15T04:38:09;100273.94;;;14.49;96.53
15750;BME280;7976;52.526;13.326;2022-10-15T04:41:00;100272.16;;;14.49;96.96
15750;BME280;7976;52.526;13.326;2022-10-15T04:43:37;100271.31;;;14.49;96.81
15750;BME280;7976;52.526;13.326;2022-10-15T04:46:08;100278.38;;;14.48;96.87
15750;BME280;7976;52.526;13.326;2022-10-15T04:48:37;100273.94;;;14.49;96.95
15750;BME280;7976;52.526;13.326;2022-10-15T04:51:13;100274.81;;;14.49;96.75
15750;BME280;7976;52.526;13.326;2022-10-15T04:53:59;100272.16;;;14.49;97.12
15750;BME280;7976;52.526;13.326;2022-10-15T04:56:28;100272.94;;;14.51;96.98
15750;BME280;7976;52.526;13.326;2022-10-15T04:58:55;100276.31;;;14.53;96.66
15750;BME280;7976;52.526;13.326;2022-10-15T05:01:27;100283.28;;;14.54;96.98
15750;BME280;7976;52.526;13.326;2022-10-15T05:04:03;100284.94;;;14.55;96.84
15750;BME280;7976;52.526;13.326;2022-10-15T05:06:32;100277.91;;;14.56;96.99
15750;BME280;7976;52.526;13.326;2022-10-15T05:09:14;100275.28;;;14.56;96.78
15750;BME280;7976;52.526;13.326;2022-10-15T05:11:46;100270.97;;;14.55;96.89
15750;BME280;7976;52.526;13.326;2022-10-15T05:14:17;100275.38;;;14.54;96.62
15750;BME280;7976;52.526;13.326;2022-10-15T05:16:55;100276.31;;;14.53;96.56
15750;BME280;7976;52.526;13.326;2022-10-15T05:19:22;100271.22;;;14.50;96.59
15750;BME280;7976;52.526;13.326;2022-10-15T05:21:49;100270.50;;;14.48;97.09
15750;BME280;7976;52.526;13.326;2022-10-15T05:24:24;100274.03;;;14.47;96.56
15750;BME280;7976;52.526;13.326;2022-10-15T05:27:02;100274.13;;;14.46;96.85
15750;BME280;7976;52.526;13.326;2022-10-15T05:29:31;100279.50;;;14.44;96.95
15750;BME280;7976;52.526;13.326;2022-10-15T05:31:59;100285.72;;;14.43;96.83
15750;BME280;7976;52.526;13.326;2022-10-15T05:34:27;100285.06;;;14.40;96.84
15750;BME280;7976;52.526;13.326;2022-10-15T05:37:06;100282.59;;;14.37;97.18
15750;BME280;7976;52.526;13.326;2022-10-15T05:39:34;100288.81;;;14.36;96.91
15750;BME280;7976;52.526;13.326;2022-10-15T05:42:01;100298.47;;;14.35;96.69
15750;BME280;7976;52.526;13.326;2022-10-15T05:44:37;100297.56;;;14.36;97.00
15750;BME280;7976;52.526;13.326;2022-10-15T05:47:05;100299.44;;;14.34;96.90
15750;BME280;7976;52.526;13.326;2022-10-15T05:49:37;100301.38;;;14.31;97.04
15750;BME280;7976;52.526;13.326;2022-10-15T05:52:14;100304.13;;;14.29;97.01
15750;BME280;7976;52.526;13.326;2022-10-15T05:55:18;100302.44;;;14.28;97.29
15750;BME280;7976;52.526;13.326;2022-10-15T05:57:46;100304.22;;;14.28;97.14
15750;BME280;7976;52.526;13.326;2022-10-15T06:00:15;100306.16;;;14.24;97.20
15750;BME280;7976;52.526;13.326;2022-10-15T06:02:51;100304.38;;;14.25;97.23
15750;BME280;7976;52.526;13.326;2022-10-15T06:05:19;100310.41;;;14.27;97.45
15750;BME280;7976;52.526;13.326;2022-10-15T06:07:47;100311.25;;;14.27;96.93
15750;BME280;7976;52.526;13.326;2022-10-15T06:10:14;100311.25;;;14.27;97.18
15750;BME280;7976;52.526;13.326;2022-10-15T06:12:47;100322.63;;;14.28;97.10
15750;BME280;7976;52.526;13.326;2022-10-15T06:15:15;100321.78;;;14.27;96.99
15750;BME280;7976;52.526;13.326;2022-10-15T06:17:43;100324.41;;;14.27;97.38
15750;BME280;7976;52.526;13.326;2022-10-15T06:20:11;100319.16;;;14.27;97.33
15750;BME280;7976;52.526;13.326;2022-10-15T06:22:38;100328.81;;;14.27;97.22
15750;BME280;7976;52.526;13.326;2022-10-15T06:25:07;100332.41;;;14.26;96.99
15750;BME280;7976;52.526;13.326;2022-10-15T06:27:34;100322.78;;;14.25;97.57
15750;BME280;7976;52.526;13.326;2022-10-15T06:30:04;100330.63;;;14.26;97.44
15750;BME280;7976;52.526;13.326;2022-10-15T06:32:31;100331.53;;;14.25;97.33
15750;BME280;7976;52.526;13.326;2022-10-15T06:34:58;100326.19;;;14.27;97.34
15750;BME280;7976;52.526;13.326;2022-10-15T06:37:28;100337.38;;;14.30;97.42
15750;BME280;7976;52.526;13.326;2022-10-15T06:39:58;100327.63;;;14.32;97.42
15750;BME280;7976;52.526;13.326;2022-10-15T06:42:25;100340.44;;;14.38;97.23
15750;BME280;7976;52.526;13.326;2022-10-15T06:44:54;100338.38;;;14.43;97.42
15750;BME280;7976;52.526;13.326;2022-10-15T06:47:23;100343.28;;;14.49;97.38
15750;BME280;7976;52.526;13.326;2022-10-15T06:49:50;100339.59;;;14.52;97.38
15750;BME280;7976;52.526;13.326;2022-10-15T06:52:17;100346.38;;;14.56;97.30
15750;BME280;7976;52.526;13.326;2022-10-15T06:54:45;100353.06;;;14.61;97.23
15750;BME280;7976;52.526;13.326;2022-10-15T06:57:12;100351.22;;;14.63;97.32
15750;BME280;7976;52.526;13.326;2022-10-15T06:59:40;100358.91;;;14.66;96.61
15750;BME280;7976;52.526;13.326;2022-10-15T07:02:08;100359.50;;;14.71;96.85
15750;BME280;7976;52.526;13.326;2022-10-15T07:04:37;100362.69;;;14.76;96.77
15750;BME280;7976;52.526;13.326;2022-10-15T07:07:04;100378.50;;;14.76;96.46
15750;BME280;7976;52.526;13.326;2022-10-15T07:09:33;100373.91;;;14.80;96.74
15750;BME280;7976;52.526;13.326;2022-10-15T07:12:02;100380.00;;;14.80;96.70
15750;BME280;7976;52.526;13.326;2022-10-15T07:14:30;100383.38;;;14.82;96.59
15750;BME280;7976;52.526;13.326;2022-10-15T07:16:58;100384.34;;;14.81;96.91
15750;BME280;7976;52.526;13.326;2022-10-15T07:19:25;100388.66;;;14.82;96.59
15750;BME280;7976;52.526;13.326;2022-10-15T07:21:54;100389.41;;;14.84;96.36
15750;BME280;7976;52.526;13.326;2022-10-15T07:24:21;100394.41;;;14.89;96.50
15750;BME280;7976;52.526;13.326;2022-10-15T07:26:48;100391.50;;;14.93;96.76
15750;BME280;7976;52.526;13.326;2022-10-15T07:29:16;100386.03;;;14.96;96.31
15750;BME280;7976;52.526;13.326;2022-10-15T07:31:45;100374.44;;;14.99;95.92
15750;BME280;7976;52.526;13.326;2022-10-15T07:34:15;100370.69;;;15.03;96.42
15750;BME280;7976;52.526;13.326;2022-10-15T07:36:42;100367.00;;;15.05;95.75
15750;BME280;7976;52.526;13.326;2022-10-15T07:39:10;100368.53;;;15.09;95.93
15750;BME280;7976;52.526;13.326;2022-10-15T07:41:38;100374.56;;;15.12;95.81
15750;BME280;7976;52.526;13.326;2022-10-15T07:44:05;100382.94;;;15.18;95.87
15750;BME280;7976;52.526;13.326;2022-10-15T07:46:32;100386.22;;;15.22;95.90
15750;BME280;7976;52.526;13.326;2022-10-15T07:49:00;100386.03;;;15.25;95.69
15750;BME280;7976;52.526;13.326;2022-10-15T07:51:27;100378.78;;;15.28;95.43
15750;BME280;7976;52.526;13.326;2022-10-15T07:53:54;100381.31;;;15.30;95.40
15750;BME280;7976;52.526;13.326;2022-10-15T07:56:23;100373.22;;;15.33;95.49
15750;BME280;7976;52.526;13.326;2022-10-15T07:58:50;100371.13;;;15.38;95.21
15750;BME280;7976;52.526;13.326;2022-10-15T08:01:18;100364.66;;;15.43;95.29
15750;BME280;7976;52.526;13.326;2022-10-15T08:03:46;100373.91;;;15.50;94.81
15750;BME280;7976;52.526;13.326;2022-10-15T08:06:13;100375.28;;;15.56;94.74
15750;BME280;7976;52.526;13.326;2022-10-15T08:08:40;100367.00;;;15.62;95.08
15750;BME280;7976;52.526;13.326;2022-10-15T08:11:10;100379.78;;;15.68;94.87
15750;BME280;7976;52.526;13.326;2022-10-15T08:13:39;100373.28;;;15.73;94.46
15750;BME280;7976;52.526;13.326;2022-10-15T08:16:07;100380.88;;;15.78;94.19
15750;BME280;7976;52.526;13.326;2022-10-15T08:18:34;100384.06;;;15.83;94.22
15750;BME280;7976;52.526;13.326;2022-10-15T08:21:03;100389.91;;;15.88;94.06
15750;BME280;7976;52.526;13.326;2022-10-15T08:23:31;100390.44;;;15.93;93.81
15750;BME280;7976;52.526;13.326;2022-10-15T08:25:58;100391.97;;;15.97;94.03
15750;BME280;7976;52.526;13.326;2022-10-15T08:28:26;100390.78;;;16.01;93.81
15750;BME280;7976;52.526;13.326;2022-10-15T08:30:56;100383.53;;;16.04;93.31
15750;BME280;7976;52.526;13.326;2022-10-15T08:33:24;100397.28;;;16.09;93.15
15750;BME280;7976;52.526;13.326;2022-10-15T08:35:51;100393.69;;;16.10;93.22
15750;BME280;7976;52.526;13.326;2022-10-15T08:38:22;100396.25;;;16.12;93.23
15750;BME280;7976;52.526;13.326;2022-10-15T08:41:19;100401.31;;;16.15;92.94
15750;BME280;7976;52.526;13.326;2022-10-15T08:43:50;100396.56;;;16.20;92.45
15750;BME280;7976;52.526;13.326;2022-10-15T08:46:27;100399.66;;;16.26;92.95
15750;BME280;7976;52.526;13.326;2022-10-15T08:48:59;100396.91;;;16.28;92.24
15750;BME280;7976;52.526;13.326;2022-10-15T08:51:35;100398.72;;;16.27;91.93
15750;BME280;7976;52.526;13.326;2022-10-15T08:54:13;100397.66;;;16.30;92.30
15750;BME280;7976;52.526;13.326;2022-10-15T08:56:46;100387.97;;;16.30;91.93
15750;BME280;7976;52.526;13.326;2022-10-15T08:59:29;100406.88;;;16.37;91.56
15750;BME280;7976;52.526;13.326;2022-10-15T09:02:07;100398.75;;;16.40;91.51
15750;BME280;7976;52.526;13.326;2022-10-15T09:04:51;100405.88;;;16.52;91.18
15750;BME280;7976;52.526;13.326;2022-10-15T09:07:28;100411.28;;;16.63;91.04
15750;BME280;7976;52.526;13.326;2022-10-15T09:10:10;100413.31;;;16.72;90.67
15750;BME280;7976;52.526;13.326;2022-10-15T09:12:50;100419.16;;;16.77;90.29
15750;BME280;7976;52.526;13.326;2022-10-15T09:15:23;100418.19;;;16.78;89.90
15750;BME280;7976;52.526;13.326;2022-10-15T09:17:54;100417.25;;;16.79;89.89
15750;BME280;7976;52.526;13.326;2022-10-15T09:20:31;100417.16;;;16.81;90.11
15750;BME280;7976;52.526;13.326;2022-10-15T09:22:58;100415.44;;;16.80;89.46
15750;BME280;7976;52.526;13.326;2022-10-15T09:25:33;100425.19;;;16.79;89.68
15750;BME280;7976;52.526;13.326;2022-10-15T09:28:09;100422.66;;;16.78;89.41
15750;BME280;7976;52.526;13.326;2022-10-15T09:30:43;100414.78;;;16.76;89.62
15750;BME280;7976;52.526;13.326;2022-10-15T09:33:27;100421.78;;;16.77;89.34
15750;BME280;7976;52.526;13.326;2022-10-15T09:36:08;100422.44;;;16.81;89.17
15750;BME280;7976;52.526;13.326;2022-10-15T09:38:54;100428.53;;;16.81;88.83
15750;BME280;7976;52.526;13.326;2022-10-15T09:41:36;100421.34;;;16.83;88.60
15750;BME280;7976;52.526;13.326;2022-10-15T09:44:11;100422.84;;;16.87;88.32
15750;BME280;7976;52.526;13.326;2022-10-15T09:46:49;100425.19;;;16.92;88.35
15750;BME280;7976;52.526;13.326;2022-10-15T09:49:23;100425.59;;;16.98;87.76
15750;BME280;7976;52.526;13.326;2022-10-15T09:52:03;100432.91;;;17.07;88.13
15750;BME280;7976;52.526;13.326;2022-10-15T09:54:44;100429.63;;;17.16;87.54
15750;BME280;7976;52.526;13.326;2022-10-15T09:57:16;100426.44;;;17.24;86.91
15750;BME280;7976;52.526;13.326;2022-10-15T09:59:53;100427.63;;;17.32;86.71
15750;BME280;7976;52.526;13.326;2022-10-15T10:02:22;100423.59;;;17.39;86.32
15750;BME280;7976;52.526;13.326;2022-10-15T10:04:51;100428.47;;;17.45;85.83
15750;BME280;7976;52.526;13.326;2022-10-15T10:07:31;100427.31;;;17.49;85.55
15750;BME280;7976;52.526;13.326;2022-10-15T10:10:03;100428.03;;;17.51;85.88
15750;BME280;7976;52.526;13.326;2022-10-15T10:12:33;100436.81;;;17.52;85.31
15750;BME280;7976;52.526;13.326;2022-10-15T10:15:06;100433.25;;;17.53;85.54
15750;BME280;7976;52.526;13.326;2022-10-15T10:17:34;100432.38;;;17.52;85.12
15750;BME280;7976;52.526;13.326;2022-10-15T10:20:15;100440.22;;;17.54;85.06
15750;BME280;7976;52.526;13.326;2022-10-15T10:22:46;100435.78;;;17.55;85.49
15750;BME280;7976;52.526;13.326;2022-10-15T10:25:33;100428.34;;;17.60;85.36
15750;BME280;7976;52.526;13.326;2022-10-15T10:28:16;100432.47;;;17.64;84.96
15750;BME280;7976;52.526;13.326;2022-10-15T10:31:04;100439.25;;;17.68;85.00
15750;BME280;7976;52.526;13.326;2022-10-15T10:33:41;100436.59;;;17.68;84.58
15750;BME280;7976;52.526;13.326;2022-10-15T10:36:24;100444.31;;;17.71;84.96
15750;BME280;7976;52.526;13.326;2022-10-15T10:39:00;100436.25;;;17.72;84.93
15750;BME280;7976;52.526;13.326;2022-10-15T10:41:49;100433.38;;;17.75;84.72
15750;BME280;7976;52.526;13.326;2022-10-15T10:44:27;100439.53;;;17.76;84.28
15750;BME280;7976;52.526;13.326;2022-10-15T10:47:08;100431.59;;;17.76;84.10
15750;BME280;7976;52.526;13.326;2022-10-15T10:49:40;100434.00;;;17.79;84.77
15750;BME280;7976;52.526;13.326;2022-10-15T10:52:25;100434.00;;;17.79;84.19
15750;BME280;7976;52.526;13.326;2022-10-15T10:55:01;100444.38;;;17.82;84.51
15750;BME280;7976;52.526;13.326;2022-10-15T10:57:42;100446.09;;;17.83;84.19
15750;BME280;7976;52.526;13.326;2022-10-15T11:00:16;100439.59;;;17.87;83.99
15750;BME280;7976;52.526;13.326;2022-10-15T11:02:48;100441.31;;;17.88;83.71
15750;BME280;7976;52.526;13.326;2022-10-15T11:05:21;100443.59;;;17.92;83.72
15750;BME280;7976;52.526;13.326;2022-10-15T11:07:59;100433.66;;;17.96;83.63
15750;BME280;7976;52.526;13.326;2022-10-15T11:10:39;100421.16;;;17.98;83.25
15750;BME280;7976;52.526;13.326;2022-10-15T11:13:41;100428.84;;;18.01;83.59
15750;BME280;7976;52.526;13.326;2022-10-15T11:16:22;100431.38;;;18.02;83.30
15750;BME280;7976;52.526;13.326;2022-10-15T11:19:16;100431.28;;;18.04;83.48
15750;BME280;7976;52.526;13.326;2022-10-15T11:22:02;100436.38;;;18.07;83.26
15750;BME280;7976;52.526;13.326;2022-10-15T11:24:40;100433.72;;;18.07;83.09
15750;BME280;7976;52.526;13.326;2022-10-15T11:27:31;100430.97;;;18.08;83.07
15750;BME280;7976;52.526;13.326;2022-10-15T11:30:10;100421.06;;;18.10;83.18
15750;BME280;7976;52.526;13.326;2022-10-15T11:32:52;100422.66;;;18.13;82.88
15750;BME280;7976;52.526;13.326;2022-10-15T11:35:36;100421.00;;;18.12;83.07
15750;BME280;7976;52.526;13.326;2022-10-15T11:38:20;100422.16;;;18.08;83.04
15750;BME280;7976;52.526;13.326;2022-10-15T11:41:10;100415.91;;;18.09;83.00
15750;BME280;7976;52.526;13.326;2022-10-15T11:43:57;100413.75;;;18.14;82.73
15750;BME280;7976;52.526;13.326;2022-10-15T11:46:38;100411.72;;;18.17;82.43
15750;BME280;7976;52.526;13.326;2022-10-15T11:49:24;100408.97;;;18.19;82.20
15750;BME280;7976;52.526;13.326;2022-10-15T11:52:20;100415.00;;;18.21;81.94
15750;BME280;7976;52.526;13.326;2022-10-15T11:55:02;100415.84;;;18.21;81.86
15750;BME280;7976;52.526;13.326;2022-10-15T11:57:35;100410.78;;;18.18;82.15
15750;BME280;7976;52.526;13.326;2022-10-15T12:00:23;100406.53;;;18.16;82.28
15750;BME280;7976;52.526;13.326;2022-10-15T12:03:00;100404.97;;;18.13;82.50
15750;BME280;7976;52.526;13.326;2022-10-15T12:05:37;100409.19;;;18.16;82.33
15750;BME280;7976;52.526;13.326;2022-10-15T12:08:09;100406.09;;;18.22;82.03
15750;BME280;7976;52.526;13.326;2022-10-15T12:10:56;100404.34;;;18.33;81.92
15750;BME280;7976;52.526;13.326;2022-10-15T12:13:38;100412.59;;;18.41;81.50
15750;BME280;7976;52.526;13.326;2022-10-15T12:16:20;100411.38;;;18.45;81.66
15750;BME280;7976;52.526;13.326;2022-10-15T12:18:57;100405.38;;;18.43;81.24
15750;BME280;7976;52.526;13.326;2022-10-15T12:21:35;100417.16;;;18.39;81.77
15750;BME280;7976;52.526;13.326;2022-10-15T12:24:05;100408.56;;;18.36;81.19
15750;BME280;7976;52.526;13.326;2022-10-15T12:26:52;100407.00;;;18.33;81.50
15750;BME280;7976;52.526;13.326;2022-10-15T12:29:25;100408.06;;;18.31;81.62
15750;BME280;7976;52.526;13.326;2022-10-15T12:31:54;100417.47;;;18.35;81.65
15750;BME280;7976;52.526;13.326;2022-10-15T12:34:36;100413.88;;;18.36;81.33
15750;BME280;7976;52.526;13.326;2022-10-15T12:37:15;100420.03;;;18.36;81.42
15750;BME280;7976;52.526;13.326;2022-10-15T12:39:44;100411.22;;;18.36;81.27
15750;BME280;7976;52.526;13.326;2022-10-15T12:42:22;100414.72;;;18.36;81.73
15750;BME280;7976;52.526;13.326;2022-10-15T12:44:54;100415.56;;;18.37;81.61
15750;BME280;7976;52.526;13.326;2022-10-15T12:47:47;100413.47;;;18.42;81.66
15750;BME280;7976;52.526;13.326;2022-10-15T12:50:21;100414.28;;;18.42;81.76
15750;BME280;7976;52.526;13.326;2022-10-15T12:52:58;100412.47;;;18.43;81.40
15750;BME280;7976;52.526;13.326;2022-10-15T12:55:30;100405.38;;;18.43;81.16
15750;BME280;7976;52.526;13.326;2022-10-15T12:58:02;100407.91;;;18.45;81.05
15750;BME280;7976;52.526;13.326;2022-10-15T13:00:37;100408.84;;;18.44;80.73
15750;BME280;7976;52.526;13.326;2022-10-15T13:03:31;100406.94;;;18.46;80.80
15750;BME280;7976;52.526;13.326;2022-10-15T13:06:25;100406.00;;;18.47;80.37
15750;BME280;7976;52.526;13.326;2022-10-15T13:09:10;100397.09;;;18.48;80.50
15750;BME280;7976;52.526;13.326;2022-10-15T13:11:45;100393.69;;;18.46;80.60
15750;BME280;7976;52.526;13.326;2022-10-15T13:14:26;100399.84;;;18.46;80.59
15750;BME280;7976;52.526;13.326;2022-10-15T13:16:56;100397.31;;;18.45;80.45
15750;BME280;7976;52.526;13.326;2022-10-15T13:19:27;100389.47;;;18.43;80.36
15750;BME280;7976;52.526;13.326;2022-10-15T13:21:59;100394.66;;;18.45;80.00
15750;BME280;7976;52.526;13.326;2022-10-15T13:24:40;100389.88;;;18.50;79.90
15750;BME280;7976;52.526;13.326;2022-10-15T13:27:20;100386.75;;;18.56;80.03
15750;BME280;7976;52.526;13.326;2022-10-15T13:29:56;100399.63;;;18.60;79.97